Ana Sayfa
METAR-TAF:

METAR-TAF

Havaalanları :

Independence, Kansas, Amerika Birleşik Devletleri

Enlem: 37-09-30N, Boylam: 095-46-42W, yükseklik: 251 m

Güncel hava durumu gözlemi

Rapor saat 03:15 UTC de 12 dakika önce yapıldı.
Rüzgar kuzeydan 14 kt
Sıcaklık 5°C
Nem 87%
Basınç 1023 hPa
Görüş mesafesi: 16.1 km
1700 ft yükseklikte parçalı bulutlu
3300 ft yükseklikte çok bulutlu

METAR: KIDP 280315Z AUTO 35014KT 10SM SCT017 OVC033 05/03 A3021 RMK AO2 T00530029

Saat: 21:27 (03:27 UTC)


TAF: eksik

4.000'den fazla havaalanı için hava durumu gözlemleri ve tahminleri (METAR ve TAF raporları).

Kullanılabilir istasyonlar harita üzerinde sarı ve kırmızı noktalarla gösterilir.

İstasyonun adını görmek için fareyi noktanın üzerinde gezdirin.

Sonrasında hava gözlem ve tahminlerini görmek için tıklayın.

Haritayı değiştirmek için: yaklaştırmak için siyah artı işaretli yeşil düğmeye ve uzaklaştırmak için de eksi işaretli düğmeye hızla tıklayın; bitişik haritalar için yeşil okları kullanın.


METAR-TAF: